D/T METAR WX W/DIR W/SPE G/SPE TEMP DEWP
16/01/19 02:50 EGCN 160250Z AUTO 20016KT 9999 BKN020/// BKN025/// OVC031/// 08/07 Q1005 SSW (200°) 18.4mph 8°C 7°C
16/01/19 02:20 EGCN 160220Z AUTO 20013KT 9999 BKN020/// 09/07 Q1006 SSW (200°) 15.0mph 9°C 7°C
16/01/19 01:50 EGCN 160150Z 18010KT 9999 SCT019 BKN024 10/07 Q1006 S (180°) 11.5mph 10°C 7°C
16/01/19 01:20 EGCN 160120Z 16006KT 120V210 9999 BKN018 10/07 Q1007 SSE (160°) 6.9mph 10°C 7°C
16/01/19 00:20 EGCN 160020Z 19013KT 9999 SCT027 BKN033 09/06 Q1008 S (190°) 15.0mph 9°C 6°C
15/01/19 23:50 EGCN 152350Z 22014KT 9999 BKN030 10/06 Q1008 SW (220°) 16.1mph 10°C 6°C
15/01/19 23:20 EGCN 152320Z 22013KT 9999 FEW032 09/06 Q1009 SW (220°) 15.0mph 9°C 6°C
15/01/19 22:20 EGCN 152220Z 23013KT 9999 SCT027 BKN033 09/06 Q1009 SW (230°) 15.0mph 9°C 6°C
15/01/19 21:50 EGCN 152150Z 22010KT 9999 SCT026 BKN031 10/06 Q1010 SW (220°) 11.5mph 10°C 6°C
15/01/19 21:20 EGCN 152120Z 21009KT 9999 BKN028 10/06 Q1010 SSW (210°) 10.4mph 10°C 6°C
15/01/19 20:50 EGCN 152050Z 21006KT 9999 BKN030 09/06 Q1011 SSW (210°) 6.9mph 9°C 6°C
15/01/19 19:50 EGCN 151950Z 22010KT 9999 FEW027 SCT032 09/06 Q1011 SW (220°) 11.5mph 9°C 6°C
15/01/19 19:20 EGCN 151920Z 23010KT CAVOK 09/06 Q1011 SW (230°) 11.5mph 9°C 6°C
15/01/19 18:50 EGCN 151850Z 23010KT 9999 FEW032 09/06 Q1012 SW (230°) 11.5mph 9°C 6°C
15/01/19 18:20 EGCN 151820Z 17005KT 140V210 9999 BKN031 08/05 Q1012 S (170°) 5.8mph 8°C 5°C
15/01/19 17:50 EGCN 151750Z 17006KT 9999 FEW024 SCT032 08/05 Q1012 S (170°) 6.9mph 8°C 5°C
15/01/19 17:20 EGCN 151720Z 20008KT 9999 SCT031 09/06 Q1013 SSW (200°) 9.2mph 9°C 6°C
15/01/19 16:50 EGCN 151650Z 22009KT 9999 FEW027 09/05 Q1013 SW (220°) 10.4mph 9°C 5°C
15/01/19 16:20 EGCN 151620Z 23010KT 9999 BKN033 10/05 Q1013 SW (230°) 11.5mph 10°C 5°C
15/01/19 15:50 EGCN 151550Z 24012KT 9999 BKN035 11/04 Q1013 WSW (240°) 13.8mph 11°C 4°C
15/01/19 14:50 EGCN 151450Z 24008KT 9999 BKN039 11/03 Q1014 WSW (240°) 9.2mph 11°C 3°C
15/01/19 14:20 EGCN 151420Z 25013KT 9999 BKN039 11/04 Q1014 WSW (250°) 15.0mph 11°C 4°C
15/01/19 13:50 EGCN 151350Z 25013KT 220V300 9999 BKN037 11/04 Q1014 WSW (250°) 15.0mph 11°C 4°C
15/01/19 13:20 EGCN 151320Z 25014KT 9999 BKN040 11/04 Q1015 WSW (250°) 16.1mph 11°C 4°C
15/01/19 12:50 EGCN 151250Z 24012KT 9999 BKN044 11/05 Q1015 WSW (240°) 13.8mph 11°C 5°C
15/01/19 11:50 EGCN 151150Z 23012KT CAVOK 12/06 Q1016 SW (230°) 13.8mph 12°C 6°C
15/01/19 11:20 EGCN 151120Z 25013KT CAVOK 11/06 Q1016 WSW (250°) 15.0mph 11°C 6°C
15/01/19 10:50 EGCN 151050Z 26015KT CAVOK 11/05 Q1016 W (260°) 17.3mph 11°C 5°C
15/01/19 10:20 EGCN 151020Z 25012KT CAVOK 10/05 Q1016 WSW (250°) 13.8mph 10°C 5°C
15/01/19 09:50 EGCN 150950Z 25010KT CAVOK 09/05 Q1016 WSW (250°) 11.5mph 9°C 5°C
15/01/19 09:20 EGCN 150920Z 23009KT CAVOK 09/05 Q1016 SW (230°) 10.4mph 9°C 5°C
15/01/19 08:50 EGCN 150850Z 20008KT CAVOK 06/04 Q1016 SSW (200°) 9.2mph 6°C 4°C
15/01/19 08:20 EGCN 150820Z 19005KT 150V230 CAVOK 06/04 Q1016 S (190°) 5.8mph 6°C 4°C
15/01/19 07:20 EGCN 150720Z 25009KT 9999 SCT022 08/05 Q1016 WSW (250°) 10.4mph 8°C 5°C
15/01/19 06:50 EGCN 150650Z 25013KT 9999 FEW035 09/06 Q1016 WSW (250°) 15.0mph 9°C 6°C
15/01/19 06:20 EGCN 150620Z 25012KT 9999 BKN033 09/05 Q1016 WSW (250°) 13.8mph 9°C 5°C
15/01/19 05:50 EGCN 150550Z 26010KT 9999 FEW023 BKN041 09/05 Q1017 W (260°) 11.5mph 9°C 5°C
15/01/19 05:20 EGCN 150520Z AUTO 26013KT 9999 BKN036/// OVC043/// 09/06 Q1017 W (260°) 15.0mph 9°C 6°C
15/01/19 04:50 EGCN 150450Z AUTO 24016KT 9999 FEW028/// OVC034/// 09/05 Q1017 WSW (240°) 18.4mph 9°C 5°C
15/01/19 04:20 EGCN 150420Z 25013KT 9999 BKN027 OVC033 09/05 Q1017 WSW (250°) 15.0mph 9°C 5°C
15/01/19 03:50 EGCN 150350Z 26008KT 230V300 9999 FEW018 SCT038 09/05 Q1018 W (260°) 9.2mph 9°C 5°C
15/01/19 02:50 EGCN 150250Z 21007KT 9999 FEW028 07/05 Q1018 SSW (210°) 8.1mph 7°C 5°C
15/01/19 02:20 EGCN 150220Z 23011KT 9999 FEW028 07/04 Q1018 SW (230°) 12.7mph 7°C 4°C
15/01/19 01:20 EGCN 150120Z 23010KT 9999 SCT032 06/04 Q1019 SW (230°) 11.5mph 6°C 4°C
15/01/19 00:50 EGCN 150050Z 24011KT 9999 SCT032 07/04 Q1019 WSW (240°) 12.7mph 7°C 4°C
14/01/19 23:50 EGCN 142350Z 23009KT 9999 SCT032 07/04 Q1020 SW (230°) 10.4mph 7°C 4°C
14/01/19 23:20 EGCN 142320Z 21008KT 9999 SCT032 07/04 Q1020 SSW (210°) 9.2mph 7°C 4°C
14/01/19 22:20 EGCN 142220Z 25008KT CAVOK 06/03 Q1020 WSW (250°) 9.2mph 6°C 3°C
14/01/19 21:50 EGCN 142150Z 24010KT CAVOK 06/04 Q1021 WSW (240°) 11.5mph 6°C 4°C
14/01/19 20:50 EGCN 142050Z 23006KT 9999 SCT035 07/04 Q1021 SW (230°) 6.9mph 7°C 4°C
14/01/19 20:20 EGCN 142020Z 25009KT 9999 FEW045 07/04 Q1021 WSW (250°) 10.4mph 7°C 4°C
14/01/19 19:50 EGCN 141950Z 25007KT 9999 SCT042 07/04 Q1021 WSW (250°) 8.1mph 7°C 4°C
14/01/19 18:50 EGCN 141850Z 24006KT 9999 BKN047 06/03 Q1021 WSW (240°) 6.9mph 6°C 3°C
14/01/19 18:20 EGCN 141820Z 26008KT 9999 FEW036 BKN043 07/04 Q1021 W (260°) 9.2mph 7°C 4°C
14/01/19 17:50 EGCN 141750Z 26010KT 9999 FEW031 BKN045 08/04 Q1021 W (260°) 11.5mph 8°C 4°C
14/01/19 17:20 EGCN 141720Z 26008KT CAVOK 08/04 Q1021 W (260°) 9.2mph 8°C 4°C
14/01/19 16:50 EGCN 141650Z 24005KT 9999 FEW030 BKN048 06/03 Q1021 WSW (240°) 5.8mph 6°C 3°C
14/01/19 16:20 EGCN 141620Z VRB03KT 9999 SCT035 BKN047 07/04 Q1021 N (0°) 3.5mph 7°C 4°C
14/01/19 15:50 EGCN 141550Z 11003KT 9999 BKN029 08/04 Q1021 ESE (110°) 3.5mph 8°C 4°C
14/01/19 15:20 EGCN 141520Z VRB03KT 9999 BKN033 08/04 Q1021 N (0°) 3.5mph 8°C 4°C
14/01/19 14:50 EGCN 141450Z VRB03KT 9999 FEW029 BKN035 10/04 Q1021 N (0°) 3.5mph 10°C 4°C
14/01/19 13:50 EGCN 141350Z 33009KT 290V360 9999 FEW030 SCT041 09/02 Q1021 NNW (330°) 10.4mph 9°C 2°C
14/01/19 13:20 EGCN 141320Z 30011KT 9999 SCT030 SCT040 09/03 Q1021 WNW (300°) 12.7mph 9°C 3°C
14/01/19 12:50 EGCN 141250Z 29009KT 270V330 9999 FEW029 SCT040 08/03 Q1021 WNW (290°) 10.4mph 8°C 3°C
14/01/19 12:20 EGCN 141220Z 31010KT 9999 FEW025 SCT030 BKN044 08/03 Q1021 NW (310°) 11.5mph 8°C 3°C
14/01/19 11:50 EGCN 141150Z 32007KT 280V350 9999 FEW020 SCT036 08/04 Q1021 NW (320°) 8.1mph 8°C 4°C
14/01/19 11:20 EGCN 141120Z 31007KT 9999 FEW041 SCT046 09/05 Q1021 NW (310°) 8.1mph 9°C 5°C
14/01/19 10:50 EGCN 141050Z 32007KT 9999 FEW041 SCT049 08/04 Q1020 NW (320°) 8.1mph 8°C 4°C
14/01/19 10:20 EGCN 141020Z 32008KT 9999 SCT049 07/04 Q1020 NW (320°) 9.2mph 7°C 4°C
14/01/19 09:50 EGCN 140950Z 33007KT 9999 SCT049 08/05 Q1020 NNW (330°) 8.1mph 8°C 5°C
14/01/19 09:20 EGCN 140920Z 34006KT 9999 FEW037 06/04 Q1020 NNW (340°) 6.9mph 6°C 4°C
14/01/19 08:50 EGCN 140850Z 35006KT 9999 SCT048 06/04 Q1019 N (350°) 6.9mph 6°C 4°C
14/01/19 07:50 EGCN 140750Z 29009KT 9999 FEW043 06/03 Q1018 WNW (290°) 10.4mph 6°C 3°C
14/01/19 07:20 EGCN 140720Z 29009KT CAVOK 07/03 Q1018 WNW (290°) 10.4mph 7°C 3°C
14/01/19 06:50 EGCN 140650Z 29009KT CAVOK 07/03 Q1018 WNW (290°) 10.4mph 7°C 3°C
14/01/19 06:20 EGCN 140620Z 29010KT CAVOK 07/03 Q1017 WNW (290°) 11.5mph 7°C 3°C
14/01/19 05:50 EGCN 140550Z 30010KT CAVOK 07/03 Q1017 WNW (300°) 11.5mph 7°C 3°C
14/01/19 05:20 EGCN 140520Z AUTO 30010KT 9999 NCD 06/03 Q1017 WNW (300°) 11.5mph 6°C 3°C
14/01/19 04:20 EGCN 140420Z AUTO 30011KT 9999 NCD 07/04 Q1016 WNW (300°) 12.7mph 7°C 4°C
14/01/19 03:50 EGCN 140350Z 29013KT CAVOK 07/04 Q1016 WNW (290°) 15.0mph 7°C 4°C
14/01/19 03:20 EGCN 140320Z 29013KT CAVOK 07/04 Q1015 WNW (290°) 15.0mph 7°C 4°C
14/01/19 02:20 EGCN 140220Z 29013KT CAVOK 08/04 Q1015 WNW (290°) 15.0mph 8°C 4°C
14/01/19 01:50 EGCN 140150Z 29013KT CAVOK 08/04 Q1014 WNW (290°) 15.0mph 8°C 4°C
14/01/19 01:20 EGCN 140120Z 29012KT 250V310 CAVOK 08/04 Q1014 WNW (290°) 13.8mph 8°C 4°C
14/01/19 00:50 EGCN 140050Z 29013KT CAVOK 09/05 Q1013 WNW (290°) 15.0mph 9°C 5°C
14/01/19 00:20 EGCN 140020Z 28011KT CAVOK 08/04 Q1013 W (280°) 12.7mph 8°C 4°C
13/01/19 23:20 EGCN 132320Z 28013KT CAVOK 08/03 Q1012 W (280°) 15.0mph 8°C 3°C
13/01/19 22:50 EGCN 132250Z 29017KT CAVOK 08/03 Q1012 WNW (290°) 19.6mph 8°C 3°C
13/01/19 21:50 EGCN 132150Z 28013KT CAVOK 09/04 Q1012 W (280°) 15.0mph 9°C 4°C
13/01/19 21:20 EGCN 132120Z 28016KT 9999 BKN049 08/04 Q1011 W (280°) 18.4mph 8°C 4°C
13/01/19 20:50 EGCN 132050Z 29016KT 9999 FEW025 08/04 Q1011 WNW (290°) 18.4mph 8°C 4°C
13/01/19 20:20 EGCN 132020Z 29017KT CAVOK 09/04 Q1011 WNW (290°) 19.6mph 9°C 4°C
13/01/19 19:50 EGCN 131950Z 29019G31KT 9999 FEW035 09/04 Q1011 WNW (290°) 21.9mph 35.7mph 9°C 4°C
13/01/19 19:20 EGCN 131920Z 29018G28KT CAVOK 09/04 Q1010 WNW (290°) 20.7mph 32.2mph 9°C 4°C
13/01/19 18:50 EGCN 131850Z 29020KT 9999 FEW036 09/04 Q1010 WNW (290°) 23.0mph 9°C 4°C
13/01/19 18:20 EGCN 131820Z 28021KT CAVOK 09/04 Q1010 W (280°) 24.2mph 9°C 4°C
13/01/19 17:50 EGCN 131750Z 30022G33KT 9999 FEW033 09/03 Q1010 WNW (300°) 25.3mph 38.0mph 9°C 3°C
13/01/19 17:20 EGCN 131720Z 29023G36KT CAVOK 10/03 Q1009 WNW (290°) 26.5mph 41.4mph 10°C 3°C
13/01/19 16:50 EGCN 131650Z 30022G35KT CAVOK 10/03 Q1009 WNW (300°) 25.3mph 40.3mph 10°C 3°C
13/01/19 16:20 EGCN 131620Z 30021G33KT 9999 FEW028 10/04 Q1009 WNW (300°) 24.2mph 38.0mph 10°C 4°C
13/01/19 15:50 EGCN 131550Z 30023KT 9999 SCT030 BKN036 11/05 Q1009 WNW (300°) 26.5mph 11°C 5°C
13/01/19 15:20 EGCN 131520Z 29024G35KT 9999 FEW022 SCT027 11/05 Q1008 WNW (290°) 27.6mph 40.3mph 11°C 5°C
13/01/19 14:50 EGCN 131450Z 31019KT 9999 SCT023 BKN029 12/07 Q1008 NW (310°) 21.9mph 12°C 7°C
13/01/19 14:20 EGCN 131420Z 29028G38KT 9999 BKN029 12/06 Q1008 WNW (290°) 32.2mph 43.7mph 12°C 6°C
13/01/19 13:50 EGCN 131350Z 29023G37KT 9999 SCT024 BKN030 13/07 Q1008 WNW (290°) 26.5mph 42.6mph 13°C 7°C
13/01/19 13:20 EGCN 131320Z 29021G33KT 9999 BKN026 13/07 Q1008 WNW (290°) 24.2mph 38.0mph 13°C 7°C
13/01/19 12:20 EGCN 131220Z 28018KT 9999 BKN022 12/07 Q1008 W (280°) 20.7mph 12°C 7°C
13/01/19 11:50 EGCN 131150Z 27021G33KT 9999 BKN019 12/07 Q1008 W (270°) 24.2mph 38.0mph 12°C 7°C
13/01/19 11:20 EGCN 131120Z 27022G33KT 9999 BKN019 12/08 Q1009 W (270°) 25.3mph 38.0mph 12°C 8°C
13/01/19 10:50 EGCN 131050Z 27020G33KT 9999 BKN021 12/08 Q1009 W (270°) 23.0mph 38.0mph 12°C 8°C
13/01/19 09:50 EGCN 130950Z 26019KT 9999 BKN019 11/08 Q1010 W (260°) 21.9mph 11°C 8°C
13/01/19 09:20 EGCN 130920Z 26021G33KT 9999 BKN018 11/07 Q1010 W (260°) 24.2mph 38.0mph 11°C 7°C
13/01/19 08:50 EGCN 130850Z 27021G31KT 9999 BKN020 11/07 Q1010 W (270°) 24.2mph 35.7mph 11°C 7°C
13/01/19 08:20 EGCN 130820Z 27022KT 9999 BKN020 11/08 Q1011 W (270°) 25.3mph 11°C 8°C
13/01/19 07:50 EGCN 130750Z 27021G32KT 9999 SCT023 10/07 Q1010 W (270°) 24.2mph 36.8mph 10°C 7°C
13/01/19 06:50 EGCN 130650Z 28017G27KT 9999 BKN015 11/08 Q1011 W (280°) 19.6mph 31.1mph 11°C 8°C
13/01/19 06:20 EGCN 130620Z 27019KT 9999 BKN019 11/07 Q1011 W (270°) 21.9mph 11°C 7°C
13/01/19 05:20 EGCN 130520Z 27017G27KT 9999 SCT018 11/08 Q1011 W (270°) 19.6mph 31.1mph 11°C 8°C
13/01/19 04:50 EGCN 130450Z 28025G36KT 9999 BKN016 10/07 Q1012 W (280°) 28.8mph 41.4mph 10°C 7°C
13/01/19 04:20 EGCN 130420Z AUTO 27025KT 9999 SCT018/// 11/08 Q1012 W (270°) 28.8mph 11°C 8°C
13/01/19 03:50 EGCN 130350Z AUTO 28024KT 9999 BKN020/// 12/08 Q1013 W (280°) 27.6mph 12°C 8°C
13/01/19 03:20 EGCN 130320Z AUTO 28018KT 9999 BKN021/// 11/07 Q1013 W (280°) 20.7mph 11°C 7°C
13/01/19 02:50 EGCN 130250Z 28021G36KT 9999 BKN022 11/07 Q1014 W (280°) 24.2mph 41.4mph 11°C 7°C
13/01/19 01:50 EGCN 130150Z 28016G26KT 9999 BKN023 12/07 Q1014 W (280°) 18.4mph 29.9mph 12°C 7°C
13/01/19 01:20 EGCN 130120Z 28021KT 9999 SCT021 12/08 Q1014 W (280°) 24.2mph 12°C 8°C
13/01/19 00:50 EGCN 130050Z 28023G33KT 9999 BKN022 12/08 Q1014 W (280°) 26.5mph 38.0mph 12°C 8°C
13/01/19 00:20 EGCN 130020Z 29019G30KT 9999 BKN021 12/08 Q1015 WNW (290°) 21.9mph 34.5mph 12°C 8°C
12/01/19 23:50 EGCN 122350Z 29020KT 9999 BKN020 12/08 Q1015 WNW (290°) 23.0mph 12°C 8°C
12/01/19 23:20 EGCN 122320Z 29019KT 9999 BKN020 12/09 Q1015 WNW (290°) 21.9mph 12°C 9°C
12/01/19 22:50 EGCN 122250Z 29019G31KT 9999 BKN020 12/08 Q1015 WNW (290°) 21.9mph 35.7mph 12°C 8°C
12/01/19 22:20 EGCN 122220Z 29021KT 9999 BKN018 BKN023 12/08 Q1015 WNW (290°) 24.2mph 12°C 8°C
12/01/19 21:50 EGCN 122150Z 29018KT 9999 BKN017 12/08 Q1015 WNW (290°) 20.7mph 12°C 8°C
12/01/19 21:20 EGCN 122120Z 29021KT 9999 BKN017 12/08 Q1016 WNW (290°) 24.2mph 12°C 8°C
12/01/19 20:50 EGCN 122050Z 29021G31KT 9999 SCT018 12/08 Q1016 WNW (290°) 24.2mph 35.7mph 12°C 8°C
12/01/19 20:20 EGCN 122020Z 29017G29KT 9999 BKN018 BKN024 12/09 Q1015 WNW (290°) 19.6mph 33.4mph 12°C 9°C
12/01/19 19:50 EGCN 121950Z 29021KT 9999 BKN019 12/09 Q1016 WNW (290°) 24.2mph 12°C 9°C
12/01/19 19:20 EGCN 121920Z 29017G28KT 9999 RA BKN019 11/08 Q1016 RERA RA WNW (290°) 19.6mph 32.2mph 11°C 8°C
12/01/19 18:50 EGCN 121850Z 29016KT 9999 RA OVC018 11/08 Q1016 RA WNW (290°) 18.4mph 11°C 8°C
12/01/19 18:20 EGCN 121820Z 28013KT 9999 OVC019 11/08 Q1016 W (280°) 15.0mph 11°C 8°C
12/01/19 17:50 EGCN 121750Z 27013KT 250V020 9999 OVC018 11/08 Q1016 W (270°) 15.0mph 11°C 8°C
12/01/19 17:20 EGCN 121720Z 27013KT 9999 OVC018 10/07 Q1017 W (270°) 15.0mph 10°C 7°C
12/01/19 16:50 EGCN 121650Z 27011KT 9999 -RA BKN020 OVC026 10/07 Q1017 -RA W (270°) 12.7mph 10°C 7°C
12/01/19 16:20 EGCN 121620Z 28013KT 240V300 8000 -RA BKN020 OVC026 09/07 Q1017 -RA W (280°) 15.0mph 9°C 7°C
12/01/19 15:50 EGCN 121550Z 28012KT 9999 BKN022 10/06 Q1017 RERA W (280°) 13.8mph 10°C 6°C